createdAt,value
2022-08-23T00:02:23.240Z,6.20
2022-08-23T00:05:03.558Z,4.93
2022-08-23T00:07:42.618Z,3.05
2022-08-23T00:10:12.483Z,4.90
2022-08-23T00:12:40.659Z,5.00
2022-08-23T00:15:10.685Z,6.13
2022-08-23T00:17:39.596Z,4.20
2022-08-23T00:20:09.866Z,7.18
2022-08-23T00:22:37.449Z,7.00
2022-08-23T00:25:06.841Z,4.57
2022-08-23T00:27:34.588Z,7.63
2022-08-23T00:30:03.098Z,5.22
2022-08-23T00:32:34.196Z,4.60
2022-08-23T00:35:01.859Z,2.10
2022-08-23T00:37:32.497Z,4.35
2022-08-23T00:40:00.933Z,6.97
2022-08-23T00:43:12.706Z,7.03
2022-08-23T00:46:07.429Z,4.78
2022-08-23T00:48:37.990Z,6.50
2022-08-23T00:51:28.131Z,5.15
2022-08-23T00:53:58.996Z,4.53
2022-08-23T00:56:30.257Z,4.10
2022-08-23T00:58:58.608Z,6.25
2022-08-23T01:01:26.499Z,2.78
2022-08-23T01:04:04.288Z,4.38
2022-08-23T01:06:47.904Z,5.47
2022-08-23T01:09:21.134Z,4.45
2022-08-23T01:12:04.044Z,4.78
2022-08-23T01:14:38.684Z,7.20
2022-08-23T01:17:13.656Z,4.70
2022-08-23T01:20:03.865Z,6.82
2022-08-23T01:22:34.423Z,5.80
2022-08-23T01:25:09.252Z,4.88
2022-08-23T01:27:42.741Z,4.45
2022-08-23T01:30:16.432Z,7.65
2022-08-23T01:32:53.648Z,3.50
2022-08-23T01:35:28.369Z,3.90
2022-08-23T01:37:55.698Z,3.10
2022-08-23T01:40:24.414Z,4.07
2022-08-23T01:42:52.204Z,4.72
2022-08-23T01:45:19.474Z,3.08
2022-08-23T01:47:46.473Z,5.22
2022-08-23T01:50:14.835Z,4.13
2022-08-23T01:52:46.760Z,11.13
2022-08-23T01:55:15.926Z,6.75
2022-08-23T01:57:46.358Z,6.45
2022-08-23T02:00:17.359Z,6.30
2022-08-23T02:02:47.086Z,5.13
2022-08-23T02:05:17.496Z,7.15
2022-08-23T02:07:47.756Z,10.63
2022-08-23T02:10:16.735Z,6.85
2022-08-23T02:12:44.069Z,4.35
2022-08-23T02:15:15.677Z,7.13
2022-08-23T02:17:44.492Z,8.35
2022-08-23T02:20:12.723Z,3.88
2022-08-23T02:22:40.187Z,6.40
2022-08-23T02:25:08.659Z,5.53
2022-08-23T02:27:36.012Z,4.25
2022-08-23T02:30:05.190Z,4.55
2022-08-23T02:32:32.943Z,6.57
2022-08-23T02:35:05.357Z,5.95
2022-08-23T02:37:35.666Z,8.85
2022-08-23T02:40:06.404Z,6.50
2022-08-23T02:42:33.634Z,6.60
2022-08-23T02:45:01.921Z,5.57
2022-08-23T02:47:30.636Z,5.55
2022-08-23T02:50:14.734Z,5.05
2022-08-23T02:52:41.827Z,6.70
2022-08-23T02:55:09.357Z,8.43
2022-08-23T02:57:36.948Z,5.60
2022-08-23T03:00:04.964Z,8.95
2022-08-23T03:02:32.741Z,10.13
2022-08-23T03:05:00.663Z,5.70
2022-08-23T03:07:28.619Z,9.80
2022-08-23T03:09:55.638Z,7.10
2022-08-23T03:12:22.871Z,8.60
2022-08-23T03:14:53.334Z,5.60
2022-08-23T03:17:20.940Z,7.68
2022-08-23T03:19:48.953Z,7.07
2022-08-23T03:22:16.031Z,8.20
2022-08-23T03:24:43.198Z,7.20
2022-08-23T03:27:11.229Z,6.97
2022-08-23T03:29:41.885Z,5.65
2022-08-23T03:32:08.912Z,6.78
2022-08-23T03:34:38.490Z,7.25
2022-08-23T03:37:08.190Z,6.53
2022-08-23T03:39:36.362Z,5.20
2022-08-23T03:42:04.911Z,7.93
2022-08-23T03:44:33.922Z,4.65
2022-08-23T03:47:02.278Z,5.35
2022-08-23T03:49:29.777Z,9.55
2022-08-23T03:51:58.412Z,8.57
2022-08-23T03:54:25.795Z,9.43
2022-08-23T03:57:00.472Z,9.88
2022-08-23T03:59:33.944Z,5.68
2022-08-23T04:02:02.608Z,6.50
2022-08-23T04:04:31.187Z,8.38
2022-08-23T04:07:20.972Z,8.80
2022-08-23T04:09:55.167Z,8.45
2022-08-23T04:12:25.609Z,7.53
2022-08-23T04:14:53.802Z,9.10
2022-08-23T04:17:22.265Z,8.75
2022-08-23T04:19:50.899Z,6.10
2022-08-23T04:22:20.679Z,8.65
2022-08-23T04:24:48.139Z,7.95
2022-08-23T04:27:16.392Z,6.85
2022-08-23T04:29:45.076Z,14.25
2022-08-23T04:32:12.575Z,7.85
2022-08-23T04:34:42.404Z,6.82
2022-08-23T04:37:15.966Z,7.93
2022-08-23T04:40:02.797Z,14.15
2022-08-23T04:42:38.280Z,6.05
2022-08-23T04:45:06.010Z,7.95
2022-08-23T04:47:34.848Z,12.30
2022-08-23T04:50:03.695Z,7.63
2022-08-23T04:52:31.923Z,9.43
2022-08-23T04:54:59.457Z,6.40
2022-08-23T04:57:52.926Z,9.30
2022-08-23T05:00:28.132Z,5.07
2022-08-23T05:02:57.727Z,7.38
2022-08-23T05:05:27.507Z,6.82
2022-08-23T05:07:55.688Z,7.00
2022-08-23T05:10:23.502Z,15.48
2022-08-23T05:12:53.174Z,5.68
2022-08-23T05:15:21.994Z,5.80
2022-08-23T05:17:57.340Z,13.25
2022-08-23T05:20:24.692Z,12.10
2022-08-23T05:22:51.772Z,8.50
2022-08-23T05:25:53.015Z,8.48
2022-08-23T05:28:31.022Z,8.05
2022-08-23T05:31:02.138Z,7.30
2022-08-23T05:33:35.112Z,5.55
2022-08-23T05:36:04.390Z,6.60
2022-08-23T05:38:31.530Z,7.32
2022-08-23T05:41:02.155Z,10.70
2022-08-23T05:43:34.258Z,12.73
2022-08-23T05:46:12.090Z,8.00
2022-08-23T05:48:47.068Z,10.25
2022-08-23T05:51:20.337Z,10.07
2022-08-23T05:53:50.307Z,7.35
2022-08-23T05:56:22.041Z,11.82
2022-08-23T05:58:54.532Z,10.55
2022-08-23T06:01:24.839Z,10.73
2022-08-23T06:03:59.644Z,8.80
2022-08-23T06:06:37.278Z,15.02
2022-08-23T06:09:07.857Z,13.85
2022-08-23T06:11:36.587Z,9.35
2022-08-23T06:14:09.052Z,13.55
2022-08-23T06:16:45.797Z,8.63
2022-08-23T06:19:16.720Z,11.25
2022-08-23T06:21:51.239Z,8.90
2022-08-23T06:24:26.651Z,16.65
2022-08-23T06:27:00.547Z,16.42
2022-08-23T06:29:28.558Z,11.32
2022-08-23T06:32:14.915Z,8.25
2022-08-23T06:35:33.078Z,14.93
2022-08-23T06:37:58.739Z,11.63
2022-08-23T06:40:44.572Z,10.52
2022-08-23T06:43:26.412Z,17.92
2022-08-23T06:46:20.184Z,10.95
2022-08-23T06:48:52.806Z,11.70
2022-08-23T06:51:21.257Z,11.68
2022-08-23T06:53:57.489Z,19.50
2022-08-23T06:56:54.359Z,11.48
2022-08-23T06:59:30.209Z,17.65
2022-08-23T07:02:04.095Z,17.23
2022-08-23T07:04:54.099Z,14.55
2022-08-23T07:07:39.720Z,17.05
2022-08-23T07:10:14.434Z,11.63
2022-08-23T07:12:42.987Z,11.55
2022-08-23T07:15:13.526Z,13.85
2022-08-23T07:17:44.392Z,13.45
2022-08-23T07:20:13.914Z,16.65
2022-08-23T07:22:44.582Z,16.33
2022-08-23T07:25:12.817Z,15.02
2022-08-23T07:27:41.260Z,16.45
2022-08-23T07:30:09.805Z,23.33
2022-08-23T07:32:40.612Z,14.40
2022-08-23T07:35:21.578Z,12.50
2022-08-23T07:37:50.215Z,22.15
2022-08-23T07:40:20.252Z,14.13
2022-08-23T07:42:49.961Z,12.93
2022-08-23T07:45:18.562Z,13.52
2022-08-23T07:47:51.266Z,13.48
2022-08-23T07:50:19.882Z,18.42
2022-08-23T07:52:48.323Z,19.08
2022-08-23T07:55:17.182Z,19.95
2022-08-23T07:58:03.203Z,16.42
2022-08-23T08:00:49.457Z,12.52
2022-08-23T08:03:39.899Z,11.93
2022-08-23T08:06:40.429Z,11.32
2022-08-23T08:09:09.906Z,16.35
2022-08-23T08:11:37.991Z,15.13
2022-08-23T08:14:09.006Z,15.07
2022-08-23T08:16:44.324Z,21.55
2022-08-23T08:19:18.963Z,14.15
2022-08-23T08:21:53.312Z,22.98
2022-08-23T08:24:52.916Z,15.77
2022-08-23T08:27:20.219Z,21.25
2022-08-23T08:29:47.374Z,20.38
2022-08-23T08:32:15.710Z,22.80
2022-08-23T08:34:44.597Z,20.23
2022-08-23T08:37:12.116Z,16.92
2022-08-23T08:39:45.735Z,30.52
2022-08-23T08:42:40.567Z,34.70
2022-08-23T08:45:16.139Z,33.42
2022-08-23T08:48:22.340Z,28.20
2022-08-23T08:50:58.066Z,21.98
2022-08-23T08:53:34.399Z,20.08
2022-08-23T08:56:21.087Z,19.70
2022-08-23T08:58:59.250Z,22.77
2022-08-23T09:01:29.804Z,28.77
2022-08-23T09:03:57.767Z,28.92
2022-08-23T09:06:35.850Z,27.13
2022-08-23T09:09:16.188Z,29.65
2022-08-23T09:11:50.268Z,30.90
2022-08-23T09:14:42.474Z,25.80
2022-08-23T09:17:25.133Z,31.98
2022-08-23T09:19:58.423Z,29.73
2022-08-23T09:22:35.623Z,19.98
2022-08-23T09:25:11.303Z,23.73
2022-08-23T09:27:48.584Z,19.83
2022-08-23T09:30:18.139Z,27.48
2022-08-23T09:32:50.140Z,25.15
2022-08-23T09:35:24.389Z,26.23
2022-08-23T09:38:20.469Z,29.02
2022-08-23T09:40:54.142Z,27.45
2022-08-23T09:43:26.927Z,21.85
2022-08-23T09:46:00.260Z,23.65
2022-08-23T09:48:43.782Z,21.13
2022-08-23T09:51:18.432Z,22.98
2022-08-23T09:54:02.961Z,22.25
2022-08-23T09:56:33.983Z,24.60
2022-08-23T09:59:01.905Z,19.75
2022-08-23T10:01:39.781Z,18.63
2022-08-23T10:04:16.602Z,18.30
2022-08-23T10:06:46.368Z,19.15
2022-08-23T10:09:32.841Z,18.85
2022-08-23T10:12:04.224Z,24.52
2022-08-23T10:14:35.216Z,19.67
2022-08-23T10:17:45.310Z,28.77
2022-08-23T10:20:39.750Z,19.27
2022-08-23T10:23:39.028Z,16.70
2022-08-23T10:26:11.280Z,25.48
2022-08-23T10:29:08.271Z,19.10
2022-08-23T10:31:47.665Z,22.52
2022-08-23T10:34:40.206Z,18.90
2022-08-23T10:37:07.405Z,14.60
2022-08-23T10:39:45.622Z,18.27
2022-08-23T10:42:38.467Z,23.88
2022-08-23T10:45:11.300Z,21.10
2022-08-23T10:48:03.913Z,24.95
2022-08-23T10:50:44.156Z,23.90
2022-08-23T10:53:21.045Z,23.13
2022-08-23T10:56:06.049Z,22.38
2022-08-23T10:58:47.548Z,14.68
2022-08-23T11:01:20.491Z,19.70
2022-08-23T11:04:26.077Z,18.55
2022-08-23T11:07:20.692Z,24.58
2022-08-23T11:10:09.942Z,24.58
2022-08-23T11:13:00.485Z,22.92
2022-08-23T11:15:55.294Z,24.98
2022-08-23T11:18:42.614Z,21.83
2022-08-23T11:21:19.188Z,19.55
2022-08-23T11:23:59.221Z,20.13
2022-08-23T11:26:31.381Z,20.65
2022-08-23T11:29:08.092Z,21.25
2022-08-23T11:31:47.551Z,17.52
2022-08-23T11:34:31.551Z,20.13
2022-08-23T11:37:18.742Z,14.45
2022-08-23T11:39:59.826Z,20.52
2022-08-23T11:42:39.125Z,21.65
2022-08-23T11:45:35.769Z,23.40
2022-08-23T11:48:29.930Z,15.27
2022-08-23T11:51:13.729Z,25.00
2022-08-23T11:53:52.863Z,15.20
2022-08-23T11:56:31.876Z,17.65
2022-08-23T11:59:08.891Z,19.48
2022-08-23T12:01:39.390Z,19.50
2022-08-23T12:04:12.574Z,21.13
2022-08-23T12:06:50.898Z,18.90
2022-08-23T12:09:25.968Z,24.63
2022-08-23T12:11:56.069Z,27.45
2022-08-23T12:14:46.689Z,26.85
2022-08-23T12:17:16.908Z,23.85
2022-08-23T12:20:16.843Z,24.10
2022-08-23T12:22:59.703Z,32.38
2022-08-23T12:25:27.436Z,21.50
2022-08-23T12:28:07.657Z,26.58
2022-08-23T12:30:57.774Z,28.98
2022-08-23T12:33:46.831Z,20.70
2022-08-23T12:36:35.141Z,24.63
2022-08-23T12:39:15.871Z,24.33
2022-08-23T12:41:49.186Z,21.08
2022-08-23T12:44:21.957Z,31.15
2022-08-23T12:46:50.443Z,26.95
2022-08-23T12:49:33.809Z,28.00
2022-08-23T12:52:07.093Z,19.55
2022-08-23T12:54:45.015Z,35.40
2022-08-23T12:57:20.995Z,31.30
2022-08-23T13:00:16.525Z,24.50
2022-08-23T13:03:02.761Z,16.88
2022-08-23T13:05:33.026Z,28.08
2022-08-23T13:08:03.345Z,26.13
2022-08-23T13:10:31.947Z,22.95
2022-08-23T13:13:00.781Z,33.92
2022-08-23T13:15:45.283Z,38.08
2022-08-23T13:18:25.945Z,84.70
2022-08-23T13:21:18.510Z,39.58
2022-08-23T13:23:47.922Z,23.67
2022-08-23T13:26:27.597Z,19.77
2022-08-23T13:29:23.787Z,23.02
2022-08-23T13:32:05.837Z,26.90
2022-08-23T13:34:48.661Z,26.45
2022-08-23T13:37:21.551Z,22.20
2022-08-23T13:39:56.699Z,23.58
2022-08-23T13:42:36.240Z,19.92
2022-08-23T13:45:21.764Z,23.88
2022-08-23T13:47:51.919Z,17.48
2022-08-23T13:50:26.385Z,19.80
2022-08-23T13:53:13.896Z,23.17
2022-08-23T13:55:42.547Z,27.35
2022-08-23T13:58:17.711Z,23.15
2022-08-23T14:00:55.101Z,17.50
2022-08-23T14:03:24.640Z,24.23
2022-08-23T14:05:52.979Z,24.25
2022-08-23T14:08:21.213Z,21.67
2022-08-23T14:10:49.138Z,25.52
2022-08-23T14:13:17.922Z,31.60
2022-08-23T14:18:34.443Z,20.92
2022-08-23T14:21:03.851Z,33.50
2022-08-23T14:23:31.539Z,38.60
2022-08-23T14:25:59.542Z,26.23
2022-08-23T14:28:29.974Z,25.20
2022-08-23T14:30:57.624Z,42.25
2022-08-23T14:33:25.108Z,27.77
2022-08-23T14:35:52.489Z,25.20
2022-08-23T14:38:19.934Z,27.20
2022-08-23T14:40:54.317Z,29.70
2022-08-23T14:43:21.834Z,33.97
2022-08-23T14:45:49.929Z,34.13
2022-08-23T14:48:18.165Z,23.52
2022-08-23T14:50:47.031Z,22.83
2022-08-23T14:53:16.715Z,31.05
2022-08-23T14:55:43.972Z,26.42
2022-08-23T14:58:11.391Z,19.30
2022-08-23T15:00:38.965Z,27.67
2022-08-23T15:03:10.163Z,25.90
2022-08-23T15:05:37.434Z,19.40
2022-08-23T15:08:05.140Z,25.30
2022-08-23T15:13:28.430Z,19.50
2022-08-23T15:15:58.854Z,23.75
2022-08-23T15:18:26.540Z,24.23
2022-08-23T15:20:56.431Z,22.42
2022-08-23T15:23:23.846Z,28.75
2022-08-23T15:25:51.266Z,19.98
2022-08-23T15:28:22.186Z,18.13
2022-08-23T15:30:51.461Z,21.48
2022-08-23T15:33:23.382Z,23.08
2022-08-23T15:35:52.505Z,27.67
2022-08-23T15:38:21.755Z,28.27
2022-08-23T15:40:50.634Z,25.00
2022-08-23T15:43:19.120Z,16.65
2022-08-23T15:45:47.075Z,21.08
2022-08-23T15:48:27.606Z,32.58
2022-08-23T15:50:58.272Z,19.10
2022-08-23T15:53:26.258Z,22.35
2022-08-23T15:55:53.800Z,25.05
2022-08-23T15:58:24.897Z,29.38
2022-08-23T16:00:53.564Z,25.65
2022-08-23T16:03:22.517Z,20.30
2022-08-23T16:05:53.929Z,27.55
2022-08-23T16:08:30.643Z,24.90
2022-08-23T16:10:58.343Z,25.92
2022-08-23T16:13:27.255Z,27.00
2022-08-23T16:15:58.265Z,22.25
2022-08-23T16:18:25.740Z,20.67
2022-08-23T16:20:54.304Z,16.67
2022-08-23T16:23:22.886Z,16.08
2022-08-23T16:25:50.295Z,18.17
2022-08-23T16:28:17.552Z,17.95
2022-08-23T16:30:44.922Z,14.25
2022-08-23T16:33:12.246Z,12.43
2022-08-23T16:35:39.268Z,13.00
2022-08-23T16:38:06.294Z,13.77
2022-08-23T16:40:33.554Z,14.88
2022-08-23T16:43:00.932Z,14.30
2022-08-23T16:45:28.355Z,12.57
2022-08-23T16:47:55.709Z,11.35
2022-08-23T16:50:22.961Z,10.43
2022-08-23T16:52:49.950Z,11.52
2022-08-23T16:55:17.275Z,9.93
2022-08-23T16:57:44.305Z,9.32
2022-08-23T17:00:13.258Z,17.90
2022-08-23T17:02:41.529Z,8.23
2022-08-23T17:05:11.383Z,9.35
2022-08-23T17:07:39.482Z,14.98
2022-08-23T17:10:09.364Z,8.23
2022-08-23T17:12:39.979Z,9.15
2022-08-23T17:15:10.432Z,8.68
2022-08-23T17:17:38.247Z,9.43
2022-08-23T17:20:07.073Z,10.80
2022-08-23T17:22:34.315Z,11.52
2022-08-23T17:25:02.489Z,14.98
2022-08-23T17:27:29.517Z,11.80
2022-08-23T17:29:57.180Z,13.45
2022-08-23T17:32:24.469Z,10.35
2022-08-23T17:34:51.954Z,13.63
2022-08-23T17:37:21.882Z,8.35
2022-08-23T17:39:50.806Z,14.73
2022-08-23T17:42:21.474Z,13.30
2022-08-23T17:44:49.066Z,9.90
2022-08-23T17:47:18.213Z,9.50
2022-08-23T17:49:47.081Z,12.68
2022-08-23T17:52:14.094Z,16.30
2022-08-23T17:54:42.225Z,12.10
2022-08-23T17:57:11.531Z,11.85
2022-08-23T17:59:38.747Z,14.52
2022-08-23T18:02:06.730Z,15.15
2022-08-23T18:04:34.187Z,10.77
2022-08-23T18:07:02.066Z,11.50
2022-08-23T18:09:29.298Z,12.82
2022-08-23T18:11:56.854Z,12.85
2022-08-23T18:14:24.220Z,13.48
2022-08-23T18:16:51.613Z,11.48
2022-08-23T18:19:18.907Z,12.23
2022-08-23T18:21:46.686Z,12.30
2022-08-23T18:24:14.322Z,12.85
2022-08-23T18:27:00.797Z,13.95
2022-08-23T18:29:29.188Z,15.10
2022-08-23T18:31:56.423Z,12.60
2022-08-23T18:34:23.533Z,12.07
2022-08-23T18:36:50.694Z,17.65
2022-08-23T18:39:31.683Z,14.43
2022-08-23T18:42:04.373Z,17.35
2022-08-23T18:44:31.785Z,14.88
2022-08-23T18:47:00.661Z,11.27
2022-08-23T18:49:28.444Z,15.82
2022-08-23T18:51:56.616Z,14.75
2022-08-23T18:54:23.719Z,12.75
2022-08-23T18:56:51.125Z,15.35
2022-08-23T18:59:18.330Z,22.17
2022-08-23T19:01:45.741Z,13.93
2022-08-23T19:04:14.570Z,15.68
2022-08-23T19:06:41.968Z,10.90
2022-08-23T19:09:11.285Z,11.73
2022-08-23T19:11:41.416Z,12.45
2022-08-23T19:14:10.809Z,14.32
2022-08-23T19:16:39.140Z,11.02
2022-08-23T19:19:07.005Z,15.95
2022-08-23T19:21:34.188Z,12.32
2022-08-23T19:24:01.698Z,9.77
2022-08-23T19:26:32.786Z,10.77
2022-08-23T19:29:07.576Z,15.63
2022-08-23T19:31:41.047Z,14.60
2022-08-23T19:34:09.941Z,8.98
2022-08-23T19:36:46.467Z,10.60
2022-08-23T19:39:16.999Z,8.18
2022-08-23T19:41:45.288Z,10.00
2022-08-23T19:44:12.918Z,14.35
2022-08-23T19:46:42.238Z,9.98
2022-08-23T19:49:11.951Z,13.75
2022-08-23T19:51:39.926Z,14.15
2022-08-23T19:54:11.662Z,12.50
2022-08-23T19:56:45.857Z,12.05
2022-08-23T19:59:23.813Z,15.85
2022-08-23T20:01:52.863Z,14.70
2022-08-23T20:04:21.311Z,16.80
2022-08-23T20:06:50.620Z,13.93
2022-08-23T20:09:20.142Z,12.20
2022-08-23T20:11:47.353Z,14.38
2022-08-23T20:14:15.246Z,11.60
2022-08-23T20:16:42.514Z,11.95
2022-08-23T20:19:11.090Z,12.27
2022-08-23T20:21:40.069Z,13.27
2022-08-23T20:24:12.912Z,14.88
2022-08-23T20:26:50.198Z,14.63
2022-08-23T20:29:20.847Z,11.18
2022-08-23T20:31:51.490Z,17.00
2022-08-23T20:34:19.116Z,12.57
2022-08-23T20:36:47.174Z,16.33
2022-08-23T20:39:14.443Z,12.35
2022-08-23T20:41:41.714Z,13.73
2022-08-23T20:44:09.360Z,14.15
2022-08-23T20:46:37.034Z,11.23
2022-08-23T20:49:05.236Z,12.73
2022-08-23T20:51:34.843Z,11.20
2022-08-23T20:54:06.226Z,10.85
2022-08-23T20:56:34.407Z,10.27
2022-08-23T20:59:01.542Z,12.40
2022-08-23T21:01:28.975Z,10.75
2022-08-23T21:03:55.957Z,13.15
2022-08-23T21:06:28.922Z,12.75
2022-08-23T21:08:59.256Z,10.45
2022-08-23T21:11:28.426Z,13.90
2022-08-23T21:13:57.244Z,13.80
2022-08-23T21:16:25.563Z,12.52
2022-08-23T21:18:55.464Z,11.52
2022-08-23T21:21:24.513Z,10.38
2022-08-23T21:23:52.022Z,11.35
2022-08-23T21:26:19.803Z,13.85
2022-08-23T21:28:46.805Z,9.93
2022-08-23T21:31:21.202Z,11.05
2022-08-23T21:33:48.804Z,10.07
2022-08-23T21:36:17.442Z,11.23
2022-08-23T21:38:45.479Z,10.80
2022-08-23T21:41:40.925Z,13.98
2022-08-23T21:44:14.832Z,18.00
2022-08-23T21:46:42.787Z,12.80
2022-08-23T21:49:12.435Z,13.63
2022-08-23T21:51:41.043Z,14.48
2022-08-23T21:54:09.742Z,11.77
2022-08-23T21:56:38.112Z,13.27
2022-08-23T21:59:07.858Z,14.18
2022-08-23T22:01:36.323Z,13.50
2022-08-23T22:04:06.531Z,10.88
2022-08-23T22:06:35.088Z,14.13
2022-08-23T22:09:03.942Z,15.70
2022-08-23T22:11:31.182Z,13.68
2022-08-23T22:13:58.165Z,10.35
2022-08-23T22:16:25.377Z,13.52
2022-08-23T22:18:52.559Z,12.70
2022-08-23T22:21:19.593Z,11.60
2022-08-23T22:23:46.542Z,13.70
2022-08-23T22:26:14.217Z,14.90
2022-08-23T22:28:44.753Z,12.15
2022-08-23T22:31:15.209Z,12.82
2022-08-23T22:33:43.925Z,13.00
2022-08-23T22:36:17.463Z,17.13
2022-08-23T22:38:45.689Z,16.92
2022-08-23T22:41:22.034Z,16.30
2022-08-23T22:43:50.255Z,15.82
2022-08-23T22:46:17.597Z,18.23
2022-08-23T22:48:44.663Z,18.88
2022-08-23T22:51:21.442Z,14.52
2022-08-23T22:53:51.905Z,15.60
2022-08-23T22:56:22.115Z,14.13
2022-08-23T22:58:52.575Z,17.38
2022-08-23T23:01:33.235Z,13.45
2022-08-23T23:04:03.780Z,14.02
2022-08-23T23:06:30.969Z,15.13
2022-08-23T23:08:58.901Z,13.80
2022-08-23T23:11:26.386Z,12.90
2022-08-23T23:13:53.873Z,13.73
2022-08-23T23:16:24.196Z,15.50
2022-08-23T23:19:10.078Z,18.73
2022-08-23T23:21:41.555Z,15.10
2022-08-23T23:24:10.826Z,15.38
2022-08-23T23:26:38.670Z,13.10
2022-08-23T23:29:07.355Z,15.43
2022-08-23T23:31:35.721Z,18.05
2022-08-23T23:34:03.584Z,12.85
2022-08-23T23:36:30.650Z,17.67
2022-08-23T23:38:58.223Z,13.73
2022-08-23T23:41:25.711Z,17.92
2022-08-23T23:43:52.840Z,13.32
2022-08-23T23:46:20.536Z,15.88
2022-08-23T23:48:50.204Z,15.32
2022-08-23T23:51:21.286Z,19.55
2022-08-23T23:53:48.908Z,19.63
2022-08-23T23:56:16.848Z,16.55
2022-08-23T23:58:44.897Z,15.20
